Time,TemperatureF,DewpointF,PressureIn,WindDirection,WindDirectionDegrees,WindSpeedMPH,WindSpeedGustMPH,Humidity,HourlyPrecipIn,Conditions,Clouds,dailyrainin,SoftwareType,DateUTC
2013-02-28 00:00:00,38.7,37.1,29.70,WSW,246,0.0,0.0,94,0.00,CLR,,0.00,WeatherDisplay:10.37,2013-02-28 05:00:00,
2013-02-28 00:05:00,38.5,36.9,29.69,WSW,245,0.0,0.0,94,0.00,CLR,,0.00,WeatherDisplay:10.37,2013-02-28 05:05:00,
2013-02-28 00:10:00,38.1,36.3,29.69,WSW,245,0.0,0.0,93,0.00,CLR,,0.00,WeatherDisplay:10.37,2013-02-28 05:10:00,
2013-02-28 00:15:00,37.7,35.9,29.69,WSW,246,0.0,0.0,93,0.00,CLR,,0.00,WeatherDisplay:10.37,2013-02-28 05:15:00,
2013-02-28 00:20:00,37.6,36.0,29.69,WSW,246,0.0,0.0,94,0.00,CLR,,0.00,WeatherDisplay:10.37,2013-02-28 05:20:00,
2013-02-28 00:25:00,37.9,36.6,29.69,WSW,246,0.0,0.0,95,0.00,CLR,,0.00,WeatherDisplay:10.37,2013-02-28 05:25:00,
2013-02-28 00:30:00,37.8,36.5,29.69,WSW,246,0.0,0.0,95,0.00,CLR,,0.00,WeatherDisplay:10.37,2013-02-28 05:30:00,
2013-02-28 00:35:00,37.6,36.0,29.69,WSW,246,0.0,0.0,94,0.00,CLR,,0.00,WeatherDisplay:10.37,2013-02-28 05:35:00,
2013-02-28 00:40:00,37.5,35.9,29.69,WSW,246,0.0,0.0,94,0.00,CLR,,0.00,WeatherDisplay:10.37,2013-02-28 05:40:00,
2013-02-28 00:45:00,37.5,36.2,29.69,WSW,246,0.0,0.0,95,0.00,CLR,,0.00,WeatherDisplay:10.37,2013-02-28 05:45:00,
2013-02-28 00:50:00,37.5,36.2,29.69,WSW,246,0.0,0.0,95,0.00,CLR,,0.00,WeatherDisplay:10.37,2013-02-28 05:50:00,
2013-02-28 00:55:00,37.5,36.2,29.69,WSW,248,0.0,0.0,95,0.00,CLR,,0.00,WeatherDisplay:10.37,2013-02-28 05:55:00,
2013-02-28 01:00:00,37.6,36.3,29.69,WSW,248,0.0,0.0,95,0.00,CLR,,0.00,WeatherDisplay:10.37,2013-02-28 06:00:00,
2013-02-28 01:05:00,37.8,36.5,29.70,North,359,0.0,0.0,95,0.00,CLR,,0.00,WeatherDisplay:10.37,2013-02-28 06:05:00,
2013-02-28 01:10:00,38.0,37.0,29.70,North,9,0.0,0.0,96,0.00,CLR,,0.00,WeatherDisplay:10.37,2013-02-28 06:10:00,
2013-02-28 01:15:00,38.1,37.1,29.70,North,8,0.0,0.0,96,0.00,CLR,,0.00,WeatherDisplay:10.37,2013-02-28 06:15:00,
2013-02-28 01:20:00,38.0,37.0,29.70,North,9,0.0,0.0,96,0.00,CLR,,0.00,WeatherDisplay:10.37,2013-02-28 06:20:00,
2013-02-28 01:25:00,38.0,37.0,29.70,North,8,0.0,0.0,96,0.00,CLR,,0.00,WeatherDisplay:10.37,2013-02-28 06:25:00,
2013-02-28 01:30:00,37.9,36.6,29.70,North,8,0.0,0.0,95,0.00,CLR,,0.00,WeatherDisplay:10.37,2013-02-28 06:30:00,
2013-02-28 01:35:00,37.7,36.4,29.71,North,9,0.0,0.0,95,0.00,CLR,,0.00,WeatherDisplay:10.37,2013-02-28 06:35:00,
2013-02-28 01:40:00,37.6,36.3,29.71,North,9,0.0,0.0,95,0.00,CLR,,0.00,WeatherDisplay:10.37,2013-02-28 06:40:00,
2013-02-28 01:45:00,37.4,36.1,29.71,North,8,0.0,0.0,95,0.00,CLR,,0.00,WeatherDisplay:10.37,2013-02-28 06:45:00,
2013-02-28 01:51:00,37.4,36.1,29.71,North,8,0.0,0.0,95,0.00,CLR,,0.00,WeatherDisplay:10.37,2013-02-28 06:51:00,
2013-02-28 01:56:00,37.7,36.7,29.71,North,8,0.0,0.0,96,0.00,CLR,,0.00,WeatherDisplay:10.37,2013-02-28 06:56:00,
2013-02-28 02:01:00,38.5,37.7,29.71,WSW,248,0.0,0.0,97,0.00,CLR,,0.00,WeatherDisplay:10.37,2013-02-28 07:01:00,
2013-02-28 02:06:00,39.1,38.3,29.71,NW,304,0.0,0.0,97,0.00,CLR,,0.00,WeatherDisplay:10.37,2013-02-28 07:06:00,
2013-02-28 02:11:00,39.5,38.5,29.71,NW,308,0.0,0.0,96,0.00,CLR,,0.00,WeatherDisplay:10.37,2013-02-28 07:11:00,
2013-02-28 02:16:00,40.4,39.1,29.71,WSW,250,0.0,0.0,95,0.00,CLR,,0.00,WeatherDisplay:10.37,2013-02-28 07:16:00,
2013-02-28 02:21:00,40.9,39.0,29.71,WSW,248,0.0,0.0,93,0.00,CLR,,0.00,WeatherDisplay:10.37,2013-02-28 07:21:00,
2013-02-28 02:26:00,41.3,38.9,29.71,WSW,246,0.0,0.0,91,0.00,CLR,,0.00,WeatherDisplay:10.37,2013-02-28 07:26:00,
2013-02-28 02:31:00,41.3,38.6,29.71,WSW,245,0.0,0.0,90,0.00,CLR,,0.00,WeatherDisplay:10.37,2013-02-28 07:31:00,
2013-02-28 02:36:00,41.2,38.5,29.71,WSW,245,0.0,0.0,90,0.00,CLR,,0.00,WeatherDisplay:10.37,2013-02-28 07:36:00,
2013-02-28 02:41:00,41.1,38.1,29.70,WSW,245,0.0,0.0,89,0.00,CLR,,0.00,WeatherDisplay:10.37,2013-02-28 07:41:00,
2013-02-28 02:46:00,41.1,38.4,29.70,WSW,245,0.0,0.0,90,0.00,CLR,,0.00,WeatherDisplay:10.37,2013-02-28 07:46:00,
2013-02-28 02:51:00,40.9,38.2,29.70,WSW,245,0.0,0.0,90,0.00,CLR,,0.00,WeatherDisplay:10.37,2013-02-28 07:51:00,
2013-02-28 02:56:00,40.7,38.0,29.70,WSW,245,0.0,0.0,90,0.00,CLR,,0.00,WeatherDisplay:10.37,2013-02-28 07:56:00,
2013-02-28 03:01:00,40.4,37.7,29.70,WSW,245,0.0,0.0,90,0.00,CLR,,0.00,WeatherDisplay:10.37,2013-02-28 08:01:00,
2013-02-28 03:06:00,40.1,37.4,29.70,WSW,245,0.0,0.0,90,0.00,CLR,,0.00,WeatherDisplay:10.37,2013-02-28 08:06:00,
2013-02-28 03:11:00,39.6,37.2,29.70,WSW,245,0.0,0.0,91,0.00,CLR,,0.00,WeatherDisplay:10.37,2013-02-28 08:11:00,
2013-02-28 03:16:00,39.2,36.8,29.70,WSW,245,0.0,0.0,91,0.00,CLR,,0.00,WeatherDisplay:10.37,2013-02-28 08:16:00,
2013-02-28 03:21:00,38.6,36.2,29.70,WSW,245,0.0,0.0,91,0.00,CLR,,0.00,WeatherDisplay:10.37,2013-02-28 08:21:00,
2013-02-28 03:26:00,37.9,35.5,29.70,WSW,245,0.0,0.0,91,0.00,CLR,,0.00,WeatherDisplay:10.37,2013-02-28 08:26:00,
2013-02-28 03:31:00,37.4,35.0,29.70,WSW,245,0.0,0.0,91,0.00,CLR,,0.00,WeatherDisplay:10.37,2013-02-28 08:31:00,
2013-02-28 03:36:00,36.8,34.4,29.69,WSW,245,0.0,0.0,91,0.00,CLR,,0.00,WeatherDisplay:10.37,2013-02-28 08:36:00,
2013-02-28 03:41:00,36.4,34.3,29.69,WSW,245,0.0,0.0,92,0.00,CLR,,0.00,WeatherDisplay:10.37,2013-02-28 08:41:00,
2013-02-28 03:46:00,36.0,33.9,29.69,WSW,245,0.0,0.0,92,0.00,CLR,,0.00,WeatherDisplay:10.37,2013-02-28 08:46:00,
2013-02-28 03:51:00,35.7,33.6,29.70,WSW,245,0.0,0.0,92,0.00,CLR,,0.00,WeatherDisplay:10.37,2013-02-28 08:51:00,
2013-02-28 03:56:00,35.7,33.9,29.70,WSW,245,0.0,0.0,93,0.00,CLR,,0.00,WeatherDisplay:10.37,2013-02-28 08:56:00,
2013-02-28 04:01:00,35.7,34.1,29.70,WSW,245,0.0,0.0,94,0.00,CLR,,0.00,WeatherDisplay:10.37,2013-02-28 09:01:00,
2013-02-28 04:06:00,35.8,34.5,29.70,WSW,245,0.0,0.0,95,0.00,CLR,,0.00,WeatherDisplay:10.37,2013-02-28 09:06:00,
2013-02-28 04:11:00,35.7,34.4,29.70,WSW,245,0.0,0.0,95,0.00,CLR,,0.00,WeatherDisplay:10.37,2013-02-28 09:11:00,
2013-02-28 04:16:00,35.8,34.5,29.70,WSW,245,0.0,0.0,95,0.00,CLR,,0.00,WeatherDisplay:10.37,2013-02-28 09:16:00,
2013-02-28 04:21:00,35.6,34.3,29.70,WSW,245,0.0,0.0,95,0.00,CLR,,0.00,WeatherDisplay:10.37,2013-02-28 09:21:00,
2013-02-28 04:26:00,35.5,34.2,29.70,WSW,245,0.0,0.0,95,0.00,CLR,,0.00,WeatherDisplay:10.37,2013-02-28 09:26:00,
2013-02-28 04:31:00,35.2,33.9,29.70,WSW,245,0.0,0.0,95,0.00,CLR,,0.00,WeatherDisplay:10.37,2013-02-28 09:31:00,
2013-02-28 04:36:00,35.3,34.0,29.70,WSW,245,0.0,0.0,95,0.00,CLR,,0.00,WeatherDisplay:10.37,2013-02-28 09:36:00,
2013-02-28 04:41:00,35.3,34.3,29.71,WSW,245,0.0,0.0,96,0.00,CLR,,0.00,WeatherDisplay:10.37,2013-02-28 09:41:00,
2013-02-28 04:46:00,35.1,34.1,29.71,WSW,245,0.0,0.0,96,0.00,CLR,,0.00,WeatherDisplay:10.37,2013-02-28 09:46:00,
2013-02-28 04:51:00,35.0,34.0,29.71,WSW,245,0.0,0.0,96,0.00,CLR,,0.00,WeatherDisplay:10.37,2013-02-28 09:51:00,
2013-02-28 04:56:00,34.9,33.9,29.71,WSW,245,0.0,0.0,96,0.00,CLR,,0.00,WeatherDisplay:10.37,2013-02-28 09:56:00,
2013-02-28 05:01:00,35.0,34.0,29.71,WSW,245,0.0,0.0,96,0.00,CLR,,0.00,WeatherDisplay:10.37,2013-02-28 10:01:00,
2013-02-28 05:06:00,35.0,34.0,29.71,WSW,245,0.0,0.0,96,0.00,CLR,,0.00,WeatherDisplay:10.37,2013-02-28 10:06:00,
2013-02-28 05:11:00,34.8,33.8,29.72,WSW,245,0.0,0.0,96,0.00,CLR,,0.00,WeatherDisplay:10.37,2013-02-28 10:11:00,
2013-02-28 05:16:00,34.8,33.8,29.72,WSW,245,0.0,0.0,96,0.00,CLR,,0.00,WeatherDisplay:10.37,2013-02-28 10:16:00,
2013-02-28 05:21:00,34.7,33.7,29.72,WSW,245,0.0,0.0,96,0.00,CLR,,0.00,WeatherDisplay:10.37,2013-02-28 10:21:00,
2013-02-28 05:26:00,34.7,33.7,29.72,WSW,245,0.0,0.0,96,0.00,CLR,,0.00,WeatherDisplay:10.37,2013-02-28 10:26:00,
2013-02-28 05:31:00,34.4,33.4,29.72,WSW,245,0.0,0.0,96,0.00,CLR,,0.00,WeatherDisplay:10.37,2013-02-28 10:31:00,
2013-02-28 05:36:00,34.1,33.1,29.72,WSW,245,0.0,0.0,96,0.00,CLR,,0.00,WeatherDisplay:10.37,2013-02-28 10:36:00,
2013-02-28 05:41:00,34.1,33.1,29.73,WSW,245,0.0,0.0,96,0.00,CLR,,0.00,WeatherDisplay:10.37,2013-02-28 10:41:00,
2013-02-28 05:46:00,34.1,33.1,29.73,WSW,245,0.0,0.0,96,0.00,CLR,,0.00,WeatherDisplay:10.37,2013-02-28 10:46:00,
2013-02-28 05:51:00,34.1,33.3,29.73,WSW,245,0.0,0.0,97,0.00,CLR,,0.00,WeatherDisplay:10.37,2013-02-28 10:51:00,
2013-02-28 05:56:00,34.0,33.2,29.73,WSW,245,0.0,0.0,97,0.00,CLR,,0.00,WeatherDisplay:10.37,2013-02-28 10:56:00,
2013-02-28 06:01:00,34.0,33.2,29.73,WSW,245,0.0,0.0,97,0.00,CLR,,0.00,WeatherDisplay:10.37,2013-02-28 11:01:00,
2013-02-28 06:06:00,34.1,33.3,29.73,WSW,245,0.0,0.0,97,0.00,CLR,,0.00,WeatherDisplay:10.37,2013-02-28 11:06:00,
2013-02-28 06:11:00,34.1,33.3,29.73,WSW,245,0.0,0.0,97,0.00,CLR,,0.00,WeatherDisplay:10.37,2013-02-28 11:11:00,
2013-02-28 06:16:00,34.2,33.4,29.73,WSW,245,0.0,0.0,97,0.00,CLR,,0.00,WeatherDisplay:10.37,2013-02-28 11:16:00,
2013-02-28 06:21:00,34.3,33.5,29.73,WSW,245,0.0,0.0,97,0.00,CLR,,0.00,WeatherDisplay:10.37,2013-02-28 11:21:00,
2013-02-28 06:26:00,34.7,33.9,29.73,WSW,245,0.0,0.0,97,0.00,CLR,,0.00,WeatherDisplay:10.37,2013-02-28 11:26:00,
2013-02-28 06:31:00,35.0,34.2,29.73,WSW,245,0.0,0.0,97,0.00,CLR,,0.00,WeatherDisplay:10.37,2013-02-28 11:31:00,
2013-02-28 06:36:00,35.3,34.5,29.73,WSW,245,0.0,0.0,97,0.00,CLR,,0.00,WeatherDisplay:10.37,2013-02-28 11:36:00,
2013-02-28 06:42:00,35.3,34.5,29.74,WSW,245,0.0,0.0,97,0.00,CLR,,0.00,WeatherDisplay:10.37,2013-02-28 11:42:00,
2013-02-28 06:47:00,35.5,34.7,29.74,WSW,245,0.0,0.0,97,0.00,CLR,,0.00,WeatherDisplay:10.37,2013-02-28 11:47:00,
2013-02-28 06:52:00,35.6,34.8,29.74,WSW,245,0.0,0.0,97,0.00,CLR,,0.00,WeatherDisplay:10.37,2013-02-28 11:52:00,
2013-02-28 06:57:00,35.6,34.8,29.74,WSW,245,0.0,0.0,97,0.00,CLR,,0.00,WeatherDisplay:10.37,2013-02-28 11:57:00,
2013-02-28 07:02:00,35.7,34.9,29.74,WSW,245,0.0,0.0,97,0.00,CLR,,0.00,WeatherDisplay:10.37,2013-02-28 12:02:00,
2013-02-28 07:07:00,35.9,35.1,29.75,WSW,245,0.0,0.0,97,0.00,CLR,,0.00,WeatherDisplay:10.37,2013-02-28 12:07:00,
2013-02-28 07:12:00,36.3,35.5,29.75,WSW,245,0.0,0.0,97,0.00,CLR,,0.00,WeatherDisplay:10.37,2013-02-28 12:12:00,
2013-02-28 07:17:00,36.9,36.1,29.75,WSW,245,0.0,0.0,97,0.00,CLR,,0.00,WeatherDisplay:10.37,2013-02-28 12:17:00,
2013-02-28 07:22:00,37.1,36.3,29.75,WSW,245,0.0,0.0,97,0.00,CLR,,0.00,WeatherDisplay:10.37,2013-02-28 12:22:00,
2013-02-28 07:27:00,37.4,36.6,29.75,WSW,245,0.0,0.0,97,0.00,CLR,,0.00,WeatherDisplay:10.37,2013-02-28 12:27:00,
2013-02-28 07:32:00,37.7,36.9,29.75,NW,305,0.0,0.0,97,0.00,CLR,,0.00,WeatherDisplay:10.37,2013-02-28 12:32:00,
2013-02-28 07:37:00,38.1,37.3,29.76,NW,304,0.0,0.0,97,0.00,CLR,,0.00,WeatherDisplay:10.37,2013-02-28 12:37:00,
2013-02-28 07:42:00,38.5,37.7,29.76,WSW,240,0.0,0.0,97,0.00,CLR,,0.00,WeatherDisplay:10.37,2013-02-28 12:42:00,
2013-02-28 07:47:00,38.8,38.0,29.76,WSW,240,0.0,0.0,97,0.00,CLR,,0.00,WeatherDisplay:10.37,2013-02-28 12:47:00,
2013-02-28 07:52:00,38.9,38.1,29.75,WSW,240,0.0,0.0,97,0.00,CLR,,0.00,WeatherDisplay:10.37,2013-02-28 12:52:00,
2013-02-28 07:57:00,39.1,38.1,29.76,WSW,240,0.0,0.0,96,0.00,CLR,,0.00,WeatherDisplay:10.37,2013-02-28 12:57:00,
2013-02-28 08:02:00,39.7,38.1,29.76,WSW,240,0.0,0.0,94,0.00,CLR,,0.00,WeatherDisplay:10.37,2013-02-28 13:02:00,
2013-02-28 08:07:00,40.2,37.8,29.76,WSW,240,0.0,0.0,91,0.00,CLR,,0.00,WeatherDisplay:10.37,2013-02-28 13:07:00,
2013-02-28 08:12:00,40.7,38.3,29.76,WSW,240,0.0,0.0,91,0.00,CLR,,0.00,WeatherDisplay:10.37,2013-02-28 13:12:00,
2013-02-28 08:17:00,41.1,38.1,29.76,WSW,240,0.0,0.0,89,0.00,CLR,,0.00,WeatherDisplay:10.37,2013-02-28 13:17:00,
2013-02-28 08:22:00,41.5,37.9,29.76,WSW,248,0.0,0.0,87,0.00,CLR,,0.00,WeatherDisplay:10.37,2013-02-28 13:22:00,
2013-02-28 08:27:00,41.8,37.6,29.76,WSW,248,0.0,0.0,85,0.00,CLR,,0.00,WeatherDisplay:10.37,2013-02-28 13:27:00,
2013-02-28 08:32:00,42.2,37.7,29.76,WSW,249,0.0,0.0,84,0.00,CLR,,0.00,WeatherDisplay:10.37,2013-02-28 13:32:00,
2013-02-28 08:37:00,42.4,37.9,29.76,WSW,252,0.0,0.0,84,0.00,CLR,,0.00,WeatherDisplay:10.37,2013-02-28 13:37:00,
2013-02-28 08:42:00,42.7,37.6,29.76,West,276,0.0,0.0,82,0.00,CLR,,0.00,WeatherDisplay:10.37,2013-02-28 13:42:00,
2013-02-28 08:47:00,42.9,37.5,29.76,WSW,250,0.0,0.0,81,0.00,CLR,,0.00,WeatherDisplay:10.37,2013-02-28 13:47:00,
2013-02-28 08:52:00,43.0,37.6,29.76,WSW,250,0.0,0.0,81,0.00,CLR,,0.00,WeatherDisplay:10.37,2013-02-28 13:52:00,
2013-02-28 08:57:00,43.2,37.1,29.76,WSW,257,0.0,0.0,79,0.00,CLR,,0.00,WeatherDisplay:10.37,2013-02-28 13:57:00,
2013-02-28 09:02:00,43.4,37.6,29.76,North,356,0.0,0.0,80,0.00,CLR,,0.00,WeatherDisplay:10.37,2013-02-28 14:02:00,
2013-02-28 09:07:00,43.6,37.5,29.76,North,352,0.0,0.0,79,0.00,CLR,,0.00,WeatherDisplay:10.37,2013-02-28 14:07:00,
2013-02-28 09:12:00,43.9,37.5,29.76,North,349,0.0,0.0,78,0.00,CLR,,0.00,WeatherDisplay:10.37,2013-02-28 14:12:00,
2013-02-28 09:17:00,44.0,37.3,29.75,NNW,327,0.0,0.0,77,0.00,CLR,,0.00,WeatherDisplay:10.37,2013-02-28 14:17:00,
2013-02-28 09:22:00,44.1,37.3,29.76,NW,306,0.0,0.0,77,0.00,CLR,,0.00,WeatherDisplay:10.37,2013-02-28 14:22:00,
2013-02-28 09:27:00,44.3,36.9,29.76,NW,306,0.0,0.0,75,0.00,CLR,,0.00,WeatherDisplay:10.37,2013-02-28 14:27:00,
2013-02-28 09:32:00,44.5,37.4,29.76,NW,306,0.0,0.0,76,0.00,CLR,,0.00,WeatherDisplay:10.37,2013-02-28 14:32:00,
2013-02-28 09:37:00,44.6,36.1,29.76,North,352,1.1,1.1,72,0.00,CLR,,0.00,WeatherDisplay:10.37,2013-02-28 14:37:00,
2013-02-28 09:42:00,44.5,35.3,29.76,WNW,293,2.3,2.3,70,0.00,CLR,,0.00,WeatherDisplay:10.37,2013-02-28 14:42:00,
2013-02-28 09:47:00,44.5,35.3,29.76,North,352,0.0,0.0,70,0.00,CLR,,0.00,WeatherDisplay:10.37,2013-02-28 14:47:00,
2013-02-28 09:52:00,44.5,35.0,29.76,West,264,2.3,2.3,69,0.00,CLR,,0.00,WeatherDisplay:10.37,2013-02-28 14:52:00,
2013-02-28 09:57:00,44.6,35.1,29.76,WSW,253,0.0,0.0,69,0.00,CLR,,0.00,WeatherDisplay:10.37,2013-02-28 14:57:00,
2013-02-28 10:02:00,44.7,34.8,29.76,WNW,294,0.0,0.0,68,0.00,CLR,,0.00,WeatherDisplay:10.37,2013-02-28 15:02:00,
2013-02-28 10:07:00,44.8,35.2,29.76,NW,308,0.0,0.0,69,0.00,CLR,,0.00,WeatherDisplay:10.37,2013-02-28 15:07:00,
2013-02-28 10:12:00,44.9,35.0,29.76,West,277,0.0,0.2,68,0.00,CLR,,0.00,WeatherDisplay:10.37,2013-02-28 15:12:00,
2013-02-28 10:17:00,44.9,34.6,29.76,WSW,246,0.0,0.0,67,0.00,CLR,,0.00,WeatherDisplay:10.37,2013-02-28 15:17:00,
2013-02-28 10:22:00,44.9,34.2,29.77,NW,307,2.3,2.3,66,0.00,CLR,,0.00,WeatherDisplay:10.37,2013-02-28 15:22:00,
2013-02-28 10:27:00,44.9,33.8,29.76,NNE,30,1.1,1.1,65,0.00,CLR,,0.00,WeatherDisplay:10.37,2013-02-28 15:27:00,
2013-02-28 10:32:00,44.9,33.8,29.76,West,260,2.3,0.0,65,0.00,CLR,,0.00,WeatherDisplay:10.37,2013-02-28 15:32:00,
2013-02-28 10:37:00,45.0,33.5,29.76,North,9,2.3,2.3,64,0.00,CLR,,0.00,WeatherDisplay:10.37,2013-02-28 15:37:00,
2013-02-28 10:42:00,45.2,34.5,29.76,North,360,1.1,0.0,66,0.00,CLR,,0.00,WeatherDisplay:10.37,2013-02-28 15:42:00,
2013-02-28 10:47:00,45.4,33.9,29.76,SW,222,1.1,0.0,64,0.00,CLR,,0.00,WeatherDisplay:10.37,2013-02-28 15:47:00,
2013-02-28 10:52:00,45.6,34.1,29.76,WNW,300,2.3,2.3,64,0.00,CLR,,0.00,WeatherDisplay:10.37,2013-02-28 15:52:00,
2013-02-28 10:57:00,45.7,33.8,29.76,SSW,206,1.1,0.0,63,0.00,CLR,,0.00,WeatherDisplay:10.37,2013-02-28 15:57:00,
2013-02-28 11:02:00,45.8,33.5,29.76,WNW,291,2.0,2.0,62,0.00,CLR,,0.00,WeatherDisplay:10.37,2013-02-28 16:02:00,
2013-02-28 11:07:00,45.9,33.6,29.76,West,260,2.3,2.3,62,0.00,CLR,,0.00,WeatherDisplay:10.37,2013-02-28 16:07:00,
2013-02-28 11:12:00,45.9,33.2,29.76,WNW,283,3.5,3.5,61,0.00,CLR,,0.00,WeatherDisplay:10.37,2013-02-28 16:12:00,
2013-02-28 11:17:00,46.0,33.7,29.76,NW,311,1.0,1.0,62,0.00,CLR,,0.00,WeatherDisplay:10.37,2013-02-28 16:17:00,
2013-02-28 11:22:00,46.1,33.8,29.76,WNW,282,2.3,2.3,62,0.00,CLR,,0.00,WeatherDisplay:10.37,2013-02-28 16:22:00,
2013-02-28 11:27:00,46.3,33.2,29.76,SW,231,1.1,1.1,60,0.00,CLR,,0.00,WeatherDisplay:10.37,2013-02-28 16:27:00,
2013-02-28 11:32:00,46.6,34.3,29.76,ENE,60,1.1,1.1,62,0.00,CLR,,0.00,WeatherDisplay:10.37,2013-02-28 16:32:00,
2013-02-28 11:38:00,46.9,34.1,29.76,North,354,4.0,4.0,61,0.00,CLR,,0.00,WeatherDisplay:10.37,2013-02-28 16:38:00,
2013-02-28 11:43:00,46.9,33.7,29.76,SW,229,2.3,2.3,60,0.00,CLR,,0.00,WeatherDisplay:10.37,2013-02-28 16:43:00,
2013-02-28 11:48:00,47.1,33.9,29.76,NNW,335,4.0,4.0,60,0.00,CLR,,0.00,WeatherDisplay:10.37,2013-02-28 16:48:00,
2013-02-28 11:53:00,47.2,33.6,29.76,NW,323,5.8,5.8,59,0.00,CLR,,0.00,WeatherDisplay:10.37,2013-02-28 16:53:00,
2013-02-28 11:58:00,47.4,33.4,29.76,WNW,294,6.0,6.0,58,0.00,CLR,,0.00,WeatherDisplay:10.37,2013-02-28 16:58:00,
2013-02-28 12:03:00,47.3,33.3,29.76,West,274,3.5,3.5,58,0.00,CLR,,0.00,WeatherDisplay:10.37,2013-02-28 17:03:00,
2013-02-28 12:08:00,47.4,33.8,29.76,NNW,329,6.9,6.9,59,0.00,CLR,,0.00,WeatherDisplay:10.37,2013-02-28 17:08:00,
2013-02-28 12:13:00,47.6,33.5,29.75,SW,226,3.5,3.5,58,0.00,CLR,,0.00,WeatherDisplay:10.37,2013-02-28 17:13:00,
2013-02-28 12:18:00,47.6,33.1,29.75,NW,312,3.5,3.5,57,0.00,CLR,,0.00,WeatherDisplay:10.37,2013-02-28 17:18:00,
2013-02-28 12:23:00,47.7,33.6,29.75,WSW,249,4.0,4.0,58,0.00,CLR,,0.00,WeatherDisplay:10.37,2013-02-28 17:23:00,
2013-02-28 12:28:00,47.8,33.3,29.75,WNW,283,2.3,2.3,57,0.00,CLR,,0.00,WeatherDisplay:10.37,2013-02-28 17:28:00,
2013-02-28 12:33:00,48.0,33.5,29.75,West,273,2.3,2.3,57,0.00,CLR,,0.00,WeatherDisplay:10.37,2013-02-28 17:33:00,
2013-02-28 12:38:00,48.0,33.5,29.74,SW,233,2.3,2.3,57,0.00,CLR,,0.00,WeatherDisplay:10.37,2013-02-28 17:38:00,
2013-02-28 12:43:00,47.6,33.1,29.74,WNW,297,2.3,2.3,57,0.00,CLR,,0.00,WeatherDisplay:10.37,2013-02-28 17:43:00,
2013-02-28 12:48:00,47.4,33.4,29.74,WNW,302,2.3,2.3,58,0.00,CLR,,0.00,WeatherDisplay:10.37,2013-02-28 17:48:00,
2013-02-28 12:53:00,47.2,31.8,29.74,WNW,294,3.5,3.5,55,0.00,CLR,,0.00,WeatherDisplay:10.37,2013-02-28 17:53:00,
2013-02-28 12:58:00,47.0,31.7,29.74,West,276,3.5,3.5,55,0.00,CLR,,0.00,WeatherDisplay:10.37,2013-02-28 17:58:00,
2013-02-28 13:03:00,46.9,32.0,29.74,West,276,3.5,3.5,56,0.00,CLR,,0.00,WeatherDisplay:10.37,2013-02-28 18:03:00,
2013-02-28 13:08:00,47.0,32.1,29.74,WSW,243,6.0,6.0,56,0.00,CLR,,0.00,WeatherDisplay:10.37,2013-02-28 18:08:00,
2013-02-28 13:13:00,47.0,32.1,29.74,West,281,3.5,3.5,56,0.00,CLR,,0.00,WeatherDisplay:10.37,2013-02-28 18:13:00,
2013-02-28 13:18:00,47.2,31.8,29.74,NW,305,3.5,3.5,55,0.00,CLR,,0.00,WeatherDisplay:10.37,2013-02-28 18:18:00,
2013-02-28 13:23:00,47.2,32.3,29.74,WSW,256,1.1,1.1,56,0.00,CLR,,0.00,WeatherDisplay:10.37,2013-02-28 18:23:00,
2013-02-28 13:28:00,47.3,31.9,29.74,SW,215,3.5,3.5,55,0.00,CLR,,0.00,WeatherDisplay:10.37,2013-02-28 18:28:00,
2013-02-28 13:33:00,47.3,31.9,29.73,NW,321,3.5,3.5,55,0.00,CLR,,0.00,WeatherDisplay:10.37,2013-02-28 18:33:00,
2013-02-28 13:38:00,47.4,31.6,29.73,WSW,251,3.5,3.5,54,0.00,CLR,,0.00,WeatherDisplay:10.37,2013-02-28 18:38:00,
2013-02-28 13:43:00,47.7,32.3,29.73,West,271,3.5,3.5,55,0.00,CLR,,0.00,WeatherDisplay:10.37,2013-02-28 18:43:00,
2013-02-28 13:48:00,47.7,31.9,29.73,West,276,2.3,2.3,54,0.00,CLR,,0.00,WeatherDisplay:10.37,2013-02-28 18:48:00,
2013-02-28 13:53:00,47.8,31.5,29.73,WNW,285,3.5,3.5,53,0.00,CLR,,0.00,WeatherDisplay:10.37,2013-02-28 18:53:00,
2013-02-28 13:58:00,47.7,31.9,29.73,SSE,165,2.3,2.3,54,0.00,CLR,,0.00,WeatherDisplay:10.37,2013-02-28 18:58:00,
2013-02-28 14:03:00,47.7,31.4,29.73,SW,235,2.3,2.3,53,0.00,CLR,,0.00,WeatherDisplay:10.37,2013-02-28 19:03:00,
2013-02-28 14:08:00,47.7,30.9,29.73,WSW,253,2.3,2.3,52,0.00,CLR,,0.00,WeatherDisplay:10.37,2013-02-28 19:08:00,
2013-02-28 14:13:00,47.7,31.4,29.73,WSW,255,1.1,1.1,53,0.00,CLR,,0.00,WeatherDisplay:10.37,2013-02-28 19:13:00,
2013-02-28 14:18:00,47.9,31.6,29.73,West,273,2.3,2.3,53,0.00,CLR,,0.00,WeatherDisplay:10.37,2013-02-28 19:18:00,
2013-02-28 14:23:00,47.9,31.1,29.73,WNW,299,3.5,3.5,52,0.00,CLR,,0.00,WeatherDisplay:10.37,2013-02-28 19:23:00,
2013-02-28 14:28:00,47.7,31.4,29.73,SSW,208,3.5,3.5,53,0.00,CLR,,0.00,WeatherDisplay:10.37,2013-02-28 19:28:00,
2013-02-28 14:33:00,47.5,31.7,29.73,West,278,3.5,3.5,54,0.00,CLR,,0.00,WeatherDisplay:10.37,2013-02-28 19:33:00,
2013-02-28 14:38:00,47.4,32.5,29.74,WNW,289,1.1,1.1,56,0.00,CLR,,0.00,WeatherDisplay:10.37,2013-02-28 19:38:00,
2013-02-28 14:43:00,47.2,31.8,29.73,North,349,1.1,1.1,55,0.00,CLR,,0.00,WeatherDisplay:10.37,2013-02-28 19:43:00,
2013-02-28 14:48:00,47.2,31.8,29.74,WNW,293,2.3,2.3,55,0.00,CLR,,0.00,WeatherDisplay:10.37,2013-02-28 19:48:00,
2013-02-28 14:53:00,47.2,31.8,29.74,South,191,2.3,2.3,55,0.00,CLR,,0.00,WeatherDisplay:10.37,2013-02-28 19:53:00,
2013-02-28 14:58:00,47.4,31.6,29.74,ESE,111,9.2,9.2,54,0.00,CLR,,0.00,WeatherDisplay:10.37,2013-02-28 19:58:00,
2013-02-28 15:03:00,47.6,31.3,29.74,NW,315,4.6,4.6,53,0.00,CLR,,0.00,WeatherDisplay:10.37,2013-02-28 20:03:00,
2013-02-28 15:08:00,47.7,31.9,29.74,West,263,2.3,2.3,54,0.00,CLR,,0.00,WeatherDisplay:10.37,2013-02-28 20:08:00,
2013-02-28 15:13:00,47.9,31.6,29.74,WNW,288,3.5,3.5,53,0.00,CLR,,0.00,WeatherDisplay:10.37,2013-02-28 20:13:00,
2013-02-28 15:18:00,47.9,30.6,29.74,West,280,3.5,3.5,51,0.00,CLR,,0.00,WeatherDisplay:10.37,2013-02-28 20:18:00,
2013-02-28 15:23:00,48.1,30.8,29.74,WNW,300,2.3,2.4,51,0.00,CLR,,0.00,WeatherDisplay:10.37,2013-02-28 20:23:00,
2013-02-28 15:28:00,48.3,31.5,29.74,North,360,2.0,2.0,52,0.00,CLR,,0.00,WeatherDisplay:10.37,2013-02-28 20:28:00,
2013-02-28 15:33:00,49.2,31.8,29.74,NW,323,6.0,6.0,51,0.00,CLR,,0.00,WeatherDisplay:10.37,2013-02-28 20:33:00,
2013-02-28 15:38:00,50.2,30.2,29.74,SW,224,6.0,6.0,46,0.00,CLR,,0.00,WeatherDisplay:10.37,2013-02-28 20:38:00,
2013-02-28 15:43:00,51.0,29.8,29.74,SW,229,6.0,6.0,44,0.00,CLR,,0.00,WeatherDisplay:10.37,2013-02-28 20:43:00,
2013-02-28 15:48:00,51.4,29.1,29.74,NNW,333,3.5,3.5,42,0.00,CLR,,0.00,WeatherDisplay:10.37,2013-02-28 20:48:00,
2013-02-28 15:53:00,50.6,28.9,29.74,SSW,203,3.5,3.5,43,0.00,CLR,,0.00,WeatherDisplay:10.37,2013-02-28 20:53:00,
2013-02-28 15:58:00,49.9,28.3,29.74,NW,311,5.8,5.8,43,0.00,CLR,,0.00,WeatherDisplay:10.37,2013-02-28 20:58:00,
2013-02-28 16:03:00,49.5,28.5,29.74,NW,319,4.0,4.0,44,0.00,CLR,,0.00,WeatherDisplay:10.37,2013-02-28 21:03:00,
2013-02-28 16:08:00,49.2,28.2,29.74,WNW,300,3.5,3.5,44,0.00,CLR,,0.00,WeatherDisplay:10.37,2013-02-28 21:08:00,
2013-02-28 16:14:00,49.1,28.1,29.74,NW,322,4.6,4.6,44,0.00,CLR,,0.00,WeatherDisplay:10.37,2013-02-28 21:14:00,
2013-02-28 16:19:00,48.9,28.5,29.74,NNE,12,2.3,2.3,45,0.00,CLR,,0.00,WeatherDisplay:10.37,2013-02-28 21:19:00,
2013-02-28 16:24:00,48.8,27.8,29.74,NW,305,3.5,3.5,44,0.00,CLR,,0.00,WeatherDisplay:10.37,2013-02-28 21:24:00,
2013-02-28 16:29:00,48.7,28.3,29.74,WNW,297,3.5,3.5,45,0.00,CLR,,0.00,WeatherDisplay:10.37,2013-02-28 21:29:00,
2013-02-28 16:34:00,48.6,27.6,29.74,NW,320,4.6,4.6,44,0.00,CLR,,0.00,WeatherDisplay:10.37,2013-02-28 21:34:00,
2013-02-28 16:39:00,48.4,27.5,29.75,NW,315,2.3,2.3,44,0.00,CLR,,0.00,WeatherDisplay:10.37,2013-02-28 21:39:00,
2013-02-28 16:44:00,48.3,27.9,29.75,West,276,3.5,3.5,45,0.00,CLR,,0.00,WeatherDisplay:10.37,2013-02-28 21:44:00,
2013-02-28 16:49:00,48.2,27.8,29.75,NW,314,4.0,4.0,45,0.00,CLR,,0.00,WeatherDisplay:10.37,2013-02-28 21:49:00,
2013-02-28 16:54:00,48.0,28.2,29.75,West,281,3.5,3.5,46,0.00,CLR,,0.00,WeatherDisplay:10.37,2013-02-28 21:54:00,
2013-02-28 16:59:00,47.9,28.1,29.75,West,263,3.5,3.5,46,0.00,CLR,,0.00,WeatherDisplay:10.37,2013-02-28 21:59:00,
2013-02-28 17:04:00,47.8,28.0,29.75,SW,227,3.5,3.5,46,0.00,CLR,,0.00,WeatherDisplay:10.37,2013-02-28 22:04:00,
2013-02-28 17:09:00,47.7,27.9,29.76,West,263,2.0,2.0,46,0.00,CLR,,0.00,WeatherDisplay:10.37,2013-02-28 22:09:00,
2013-02-28 17:14:00,47.6,28.3,29.76,SSW,210,1.1,1.1,47,0.00,CLR,,0.00,WeatherDisplay:10.37,2013-02-28 22:14:00,
2013-02-28 17:19:00,47.5,27.7,29.76,WNW,285,4.6,4.6,46,0.00,CLR,,0.00,WeatherDisplay:10.37,2013-02-28 22:19:00,
2013-02-28 17:24:00,47.4,27.6,29.76,NW,322,3.5,3.5,46,0.00,CLR,,0.00,WeatherDisplay:10.37,2013-02-28 22:24:00,
2013-02-28 17:29:00,47.4,28.7,29.76,SW,217,2.3,2.3,48,0.00,CLR,,0.00,WeatherDisplay:10.37,2013-02-28 22:29:00,
2013-02-28 17:34:00,47.2,28.0,29.76,WNW,300,2.3,2.3,47,0.00,CLR,,0.00,WeatherDisplay:10.37,2013-02-28 22:34:00,
2013-02-28 17:39:00,47.1,27.9,29.77,WNW,288,3.5,3.5,47,0.00,CLR,,0.00,WeatherDisplay:10.37,2013-02-28 22:39:00,
2013-02-28 17:44:00,46.9,27.7,29.77,WNW,292,2.3,2.3,47,0.00,CLR,,0.00,WeatherDisplay:10.37,2013-02-28 22:44:00,
2013-02-28 17:49:00,46.7,28.0,29.77,WNW,303,3.5,3.5,48,0.00,CLR,,0.00,WeatherDisplay:10.37,2013-02-28 22:49:00,
2013-02-28 17:54:00,46.5,27.8,29.77,WNW,293,2.3,2.3,48,0.00,CLR,,0.00,WeatherDisplay:10.37,2013-02-28 22:54:00,
2013-02-28 17:59:00,46.3,28.2,29.77,WNW,290,3.0,3.0,49,0.00,CLR,,0.00,WeatherDisplay:10.37,2013-02-28 22:59:00,
2013-02-28 18:04:00,46.0,27.9,29.77,WSW,246,4.6,4.6,49,0.00,CLR,,0.00,WeatherDisplay:10.37,2013-02-28 23:04:00,
2013-02-28 18:09:00,45.8,28.2,29.77,NNW,342,1.1,1.1,50,0.00,CLR,,0.00,WeatherDisplay:10.37,2013-02-28 23:09:00,
2013-02-28 18:14:00,45.5,27.9,29.77,West,271,3.5,3.5,50,0.00,CLR,,0.00,WeatherDisplay:10.37,2013-02-28 23:14:00,
2013-02-28 18:19:00,45.3,27.7,29.77,WSW,246,2.3,2.3,50,0.00,CLR,,0.00,WeatherDisplay:10.37,2013-02-28 23:19:00,
2013-02-28 18:24:00,45.0,27.9,29.77,WSW,249,1.1,1.1,51,0.00,CLR,,0.00,WeatherDisplay:10.37,2013-02-28 23:24:00,
2013-02-28 18:29:00,44.6,28.0,29.78,WSW,249,0.0,0.0,52,0.00,CLR,,0.00,WeatherDisplay:10.37,2013-02-28 23:29:00,
2013-02-28 18:34:00,44.2,28.1,29.78,WSW,249,0.0,0.0,53,0.00,CLR,,0.00,WeatherDisplay:10.37,2013-02-28 23:34:00,
2013-02-28 18:39:00,43.8,28.2,29.78,WSW,249,0.0,0.0,54,0.00,CLR,,0.00,WeatherDisplay:10.37,2013-02-28 23:39:00,
2013-02-28 18:44:00,43.5,28.4,29.79,WSW,249,0.0,0.0,55,0.00,CLR,,0.00,WeatherDisplay:10.37,2013-02-28 23:44:00,
2013-02-28 18:49:00,43.1,28.5,29.79,WSW,249,0.0,0.0,56,0.00,CLR,,0.00,WeatherDisplay:10.37,2013-02-28 23:49:00,
2013-02-28 18:54:00,42.8,28.6,29.79,WSW,249,0.0,0.0,57,0.00,CLR,,0.00,WeatherDisplay:10.37,2013-02-28 23:54:00,
2013-02-28 18:59:00,42.7,28.5,29.79,WSW,250,0.0,0.0,57,0.00,CLR,,0.00,WeatherDisplay:10.37,2013-02-28 23:59:00,
2013-02-28 19:04:00,42.5,28.8,29.79,WSW,250,1.1,0.0,58,0.00,CLR,,0.00,WeatherDisplay:10.37,2013-03-01 00:04:00,
2013-02-28 19:09:00,42.2,28.5,29.80,WSW,251,0.0,0.0,58,0.00,CLR,,0.00,WeatherDisplay:10.37,2013-03-01 00:09:00,
2013-02-28 19:14:00,41.9,28.6,29.80,WSW,250,0.0,0.0,59,0.00,CLR,,0.00,WeatherDisplay:10.37,2013-03-01 00:14:00,
2013-02-28 19:19:00,41.7,28.8,29.80,WSW,250,0.0,0.0,60,0.00,CLR,,0.00,WeatherDisplay:10.37,2013-03-01 00:19:00,
2013-02-28 19:24:00,41.4,29.3,29.80,WSW,250,0.0,0.0,62,0.00,CLR,,0.00,WeatherDisplay:10.37,2013-03-01 00:24:00,
2013-02-28 19:29:00,41.2,29.2,29.80,WSW,250,0.0,0.0,62,0.00,CLR,,0.00,WeatherDisplay:10.37,2013-03-01 00:29:00,
2013-02-28 19:34:00,40.8,29.2,29.80,WSW,250,0.0,0.0,63,0.00,CLR,,0.00,WeatherDisplay:10.37,2013-03-01 00:34:00,
2013-02-28 19:39:00,40.5,28.9,29.81,WSW,248,1.0,0.0,63,0.00,CLR,,0.00,WeatherDisplay:10.37,2013-03-01 00:39:00,
2013-02-28 19:44:00,40.4,29.6,29.81,WSW,248,0.0,0.0,65,0.00,CLR,,0.00,WeatherDisplay:10.37,2013-03-01 00:44:00,
2013-02-28 19:49:00,40.1,28.9,29.81,WSW,248,0.0,0.0,64,0.00,CLR,,0.00,WeatherDisplay:10.37,2013-03-01 00:49:00,
2013-02-28 19:54:00,39.8,29.0,29.81,WSW,248,0.0,0.0,65,0.00,CLR,,0.00,WeatherDisplay:10.37,2013-03-01 00:54:00,
2013-02-28 19:59:00,39.7,28.9,29.81,WSW,250,1.0,1.0,65,0.00,CLR,,0.00,WeatherDisplay:10.37,2013-03-01 00:59:00,
2013-02-28 20:04:00,39.9,29.1,29.81,WSW,250,0.0,0.0,65,0.00,CLR,,0.00,WeatherDisplay:10.37,2013-03-01 01:04:00,
2013-02-28 20:09:00,40.0,28.8,29.81,WSW,250,0.0,0.0,64,0.00,CLR,,0.00,WeatherDisplay:10.37,2013-03-01 01:09:00,
2013-02-28 20:14:00,39.8,29.0,29.81,WSW,251,0.0,0.0,65,0.00,CLR,,0.00,WeatherDisplay:10.37,2013-03-01 01:14:00,
2013-02-28 20:19:00,39.6,29.2,29.81,WSW,255,0.0,0.0,66,0.00,CLR,,0.00,WeatherDisplay:10.37,2013-03-01 01:19:00,
2013-02-28 20:24:00,39.6,29.2,29.81,WNW,288,0.0,0.1,66,0.00,CLR,,0.00,WeatherDisplay:10.37,2013-03-01 01:24:00,
2013-02-28 20:29:00,39.7,28.9,29.82,West,278,1.1,0.0,65,0.00,CLR,,0.00,WeatherDisplay:10.37,2013-03-01 01:29:00,
2013-02-28 20:34:00,39.8,29.0,29.82,West,277,1.1,1.1,65,0.00,CLR,,0.00,WeatherDisplay:10.37,2013-03-01 01:34:00,
2013-02-28 20:39:00,39.7,28.9,29.82,WSW,250,1.1,1.1,65,0.00,CLR,,0.00,WeatherDisplay:10.37,2013-03-01 01:39:00,
2013-02-28 20:44:00,39.7,28.5,29.82,WSW,246,1.1,0.0,64,0.00,CLR,,0.00,WeatherDisplay:10.37,2013-03-01 01:44:00,
2013-02-28 20:49:00,39.7,28.9,29.82,WSW,245,1.1,0.0,65,0.00,CLR,,0.00,WeatherDisplay:10.37,2013-03-01 01:49:00,
2013-02-28 20:54:00,39.7,28.9,29.82,SW,229,0.0,0.0,65,0.00,CLR,,0.00,WeatherDisplay:10.37,2013-03-01 01:54:00,
2013-02-28 20:59:00,39.5,28.7,29.82,SW,229,0.0,0.0,65,0.00,CLR,,0.00,WeatherDisplay:10.37,2013-03-01 01:59:00,
2013-02-28 21:05:00,39.4,28.6,29.83,SW,231,0.0,0.0,65,0.00,CLR,,0.00,WeatherDisplay:10.37,2013-03-01 02:05:00,
2013-02-28 21:10:00,39.3,28.5,29.82,SW,229,1.0,1.0,65,0.00,CLR,,0.00,WeatherDisplay:10.37,2013-03-01 02:10:00,
2013-02-28 21:15:00,39.2,28.4,29.83,West,267,0.0,0.0,65,0.00,CLR,,0.00,WeatherDisplay:10.37,2013-03-01 02:15:00,
2013-02-28 21:20:00,39.2,28.4,29.83,West,266,0.0,0.0,65,0.00,CLR,,0.00,WeatherDisplay:10.37,2013-03-01 02:20:00,
2013-02-28 21:25:00,38.9,28.5,29.83,West,266,0.0,0.0,66,0.00,CLR,,0.00,WeatherDisplay:10.37,2013-03-01 02:25:00,
2013-02-28 21:30:00,38.5,28.9,29.83,West,265,0.0,0.0,68,0.00,CLR,,0.00,WeatherDisplay:10.37,2013-03-01 02:30:00,
2013-02-28 21:35:00,38.0,28.4,29.84,West,266,0.0,0.0,68,0.00,CLR,,0.00,WeatherDisplay:10.37,2013-03-01 02:35:00,
2013-02-28 21:40:00,37.6,28.7,29.84,West,266,0.0,0.0,70,0.00,CLR,,0.00,WeatherDisplay:10.37,2013-03-01 02:40:00,
2013-02-28 21:45:00,37.4,28.5,29.84,West,265,0.0,0.0,70,0.00,CLR,,0.00,WeatherDisplay:10.37,2013-03-01 02:45:00,
2013-02-28 21:50:00,37.4,28.5,29.84,West,269,0.0,0.0,70,0.00,CLR,,0.00,WeatherDisplay:10.37,2013-03-01 02:50:00,
2013-02-28 21:55:00,37.4,28.9,29.84,West,269,1.0,0.0,71,0.00,CLR,,0.00,WeatherDisplay:10.37,2013-03-01 02:55:00,
2013-02-28 22:00:00,37.2,29.0,29.84,West,269,0.0,0.0,72,0.00,CLR,,0.00,WeatherDisplay:10.37,2013-03-01 03:00:00,
2013-02-28 22:05:00,36.6,29.1,29.84,West,269,0.0,0.0,74,0.00,CLR,,0.00,WeatherDisplay:10.37,2013-03-01 03:05:00,
2013-02-28 22:10:00,36.0,28.8,29.84,West,269,0.0,0.0,75,0.00,CLR,,0.00,WeatherDisplay:10.37,2013-03-01 03:10:00,
2013-02-28 22:15:00,35.5,28.7,29.85,West,269,0.0,0.0,76,0.00,CLR,,0.00,WeatherDisplay:10.37,2013-03-01 03:15:00,
2013-02-28 22:20:00,35.2,28.4,29.85,West,267,0.0,0.0,76,0.00,CLR,,0.00,WeatherDisplay:10.37,2013-03-01 03:20:00,
2013-02-28 22:25:00,34.9,28.4,29.85,West,267,0.0,0.0,77,0.00,CLR,,0.00,WeatherDisplay:10.37,2013-03-01 03:25:00,
2013-02-28 22:30:00,34.6,28.4,29.85,West,269,0.0,0.0,78,0.00,CLR,,0.00,WeatherDisplay:10.37,2013-03-01 03:30:00,
2013-02-28 22:35:00,34.4,28.6,29.85,West,266,0.0,0.0,79,0.00,CLR,,0.00,WeatherDisplay:10.37,2013-03-01 03:35:00,
2013-02-28 22:40:00,34.2,28.4,29.85,West,266,0.0,0.0,79,0.00,CLR,,0.00,WeatherDisplay:10.37,2013-03-01 03:40:00,
2013-02-28 22:45:00,34.1,28.6,29.84,West,267,0.0,0.0,80,0.00,CLR,,0.00,WeatherDisplay:10.37,2013-03-01 03:45:00,
2013-02-28 22:50:00,33.9,28.4,29.84,West,267,0.0,0.0,80,0.00,CLR,,0.00,WeatherDisplay:10.37,2013-03-01 03:50:00,
2013-02-28 22:55:00,33.5,28.0,29.84,West,267,0.0,0.0,80,0.00,CLR,,0.00,WeatherDisplay:10.37,2013-03-01 03:55:00,
2013-02-28 23:00:00,33.4,28.5,29.84,West,266,0.0,0.0,82,0.00,CLR,,0.00,WeatherDisplay:10.37,2013-03-01 04:00:00,
2013-02-28 23:05:00,33.4,28.2,29.84,West,267,0.0,0.0,81,0.00,CLR,,0.00,WeatherDisplay:10.37,2013-03-01 04:05:00,
2013-02-28 23:10:00,33.1,27.9,29.84,West,267,0.0,0.0,81,0.00,CLR,,0.00,WeatherDisplay:10.37,2013-03-01 04:10:00,
2013-02-28 23:15:00,32.9,28.0,29.85,West,267,0.0,0.0,82,0.00,CLR,,0.00,WeatherDisplay:10.37,2013-03-01 04:15:00,
2013-02-28 23:20:00,32.8,28.5,29.84,West,267,0.0,0.0,84,0.00,CLR,,0.00,WeatherDisplay:10.37,2013-03-01 04:20:00,
2013-02-28 23:25:00,32.8,28.5,29.85,West,267,0.0,0.0,84,0.00,CLR,,0.00,WeatherDisplay:10.37,2013-03-01 04:25:00,
2013-02-28 23:30:00,32.7,28.4,29.84,West,267,0.0,0.0,84,0.00,CLR,,0.00,WeatherDisplay:10.37,2013-03-01 04:30:00,
2013-02-28 23:35:00,32.6,28.3,29.84,West,267,0.0,0.0,84,0.00,CLR,,0.00,WeatherDisplay:10.37,2013-03-01 04:35:00,
2013-02-28 23:40:00,32.4,28.1,29.85,West,267,0.0,0.0,84,0.00,CLR,,0.00,WeatherDisplay:10.37,2013-03-01 04:40:00,
2013-02-28 23:45:00,32.2,27.9,29.85,West,267,0.0,0.0,84,0.00,CLR,,0.00,WeatherDisplay:10.37,2013-03-01 04:45:00,
2013-02-28 23:50:00,32.2,28.2,29.85,West,267,0.0,0.0,85,0.00,CLR,,0.00,WeatherDisplay:10.37,2013-03-01 04:50:00,
2013-02-28 23:55:00,32.3,28.0,29.85,West,265,0.0,0.0,84,0.00,CLR,,0.00,WeatherDisplay:10.37,2013-03-01 04:55:00,